createdAt,value
2019-01-26T00:00:00.661Z,-0.80
2019-01-26T00:02:32.102Z,-0.70
2019-01-26T00:05:01.741Z,-0.70
2019-01-26T00:07:32.538Z,-0.70
2019-01-26T00:10:02.173Z,-0.70
2019-01-26T00:12:32.868Z,-0.70
2019-01-26T00:15:02.504Z,-0.70
2019-01-26T00:17:32.213Z,-0.70
2019-01-26T00:20:01.926Z,-0.70
2019-01-26T00:22:31.543Z,-0.70
2019-01-26T00:25:01.168Z,-0.70
2019-01-26T00:27:30.945Z,-0.60
2019-01-26T00:30:00.761Z,-0.50
2019-01-26T00:32:30.556Z,-0.40
2019-01-26T00:35:00.190Z,-0.40
2019-01-26T00:37:29.810Z,-0.40
2019-01-26T00:39:59.568Z,-0.40
2019-01-26T00:42:29.469Z,-0.30
2019-01-26T00:44:59.134Z,-0.30
2019-01-26T00:47:28.849Z,-0.30
2019-01-26T00:49:58.976Z,-0.30
2019-01-26T00:52:28.668Z,-0.20
2019-01-26T00:54:58.590Z,-0.20
2019-01-26T00:57:28.453Z,-0.20
2019-01-26T00:59:58.120Z,-0.10
2019-01-26T01:02:28.053Z,-0.10
2019-01-26T01:04:57.733Z,-0.10
2019-01-26T01:07:27.362Z,0.00
2019-01-26T01:09:56.972Z,-0.10
2019-01-26T01:12:26.600Z,0.00
2019-01-26T01:14:56.318Z,0.00
2019-01-26T01:17:25.927Z,0.00
2019-01-26T01:19:55.545Z,0.00
2019-01-26T01:22:25.175Z,0.10
2019-01-26T01:24:54.792Z,0.10
2019-01-26T01:27:24.476Z,0.10
2019-01-26T01:29:54.085Z,0.10
2019-01-26T01:32:23.713Z,0.20
2019-01-26T01:34:53.438Z,0.20
2019-01-26T01:37:23.183Z,0.20
2019-01-26T01:39:53.056Z,0.20
2019-01-26T01:42:22.689Z,0.30
2019-01-26T01:44:52.328Z,0.40
2019-01-26T01:47:22.124Z,0.30
2019-01-26T01:49:52.034Z,0.40
2019-01-26T01:52:21.656Z,0.40
2019-01-26T01:54:51.547Z,0.40
2019-01-26T01:57:21.499Z,0.40
2019-01-26T01:59:51.173Z,0.40
2019-01-26T02:02:20.879Z,0.40
2019-01-26T02:04:50.495Z,0.50
2019-01-26T02:07:20.340Z,0.50
2019-01-26T02:09:50.180Z,0.50
2019-01-26T02:12:20.033Z,0.60
2019-01-26T02:14:49.671Z,0.60
2019-01-26T02:17:20.447Z,0.60
2019-01-26T02:19:50.443Z,0.60
2019-01-26T02:22:20.069Z,0.70
2019-01-26T02:24:49.938Z,0.80
2019-01-26T02:27:19.975Z,0.80
2019-01-26T02:29:49.594Z,0.80
2019-01-26T02:32:19.237Z,0.90
2019-01-26T02:34:49.014Z,0.80
2019-01-26T02:37:18.657Z,0.90
2019-01-26T02:39:48.344Z,1.00
2019-01-26T02:42:18.046Z,1.00
2019-01-26T02:44:47.936Z,1.10
2019-01-26T02:47:17.793Z,1.10
2019-01-26T02:49:47.657Z,1.20
2019-01-26T02:52:17.367Z,1.20
2019-01-26T02:54:46.979Z,1.20
2019-01-26T02:57:16.642Z,1.20
2019-01-26T02:59:46.357Z,1.30
2019-01-26T03:02:15.993Z,1.30
2019-01-26T03:04:45.640Z,1.30
2019-01-26T03:07:15.347Z,1.40
2019-01-26T03:09:44.965Z,1.40
2019-01-26T03:12:14.592Z,1.40
2019-01-26T03:14:44.216Z,1.50
2019-01-26T03:17:14.002Z,1.50
2019-01-26T03:19:43.700Z,1.50
2019-01-26T03:22:13.318Z,1.50
2019-01-26T03:24:42.943Z,1.50
2019-01-26T03:27:12.621Z,1.60
2019-01-26T03:29:42.497Z,1.60
2019-01-26T03:32:12.113Z,1.60
2019-01-26T03:34:41.819Z,1.70
2019-01-26T03:37:11.442Z,1.70
2019-01-26T03:39:41.502Z,1.70
2019-01-26T03:42:11.598Z,1.80
2019-01-26T03:44:41.222Z,1.80
2019-01-26T03:47:13.786Z,1.80
2019-01-26T03:49:42.552Z,1.80
2019-01-26T03:52:12.228Z,1.80
2019-01-26T03:54:41.897Z,1.90
2019-01-26T03:57:11.504Z,1.90
2019-01-26T03:59:41.285Z,1.90
2019-01-26T04:02:11.132Z,1.90
2019-01-26T04:04:40.876Z,1.90
2019-01-26T04:07:10.729Z,2.00
2019-01-26T04:09:40.493Z,2.00
2019-01-26T04:12:10.097Z,2.00
2019-01-26T04:14:40.031Z,2.00
2019-01-26T04:17:10.002Z,2.10
2019-01-26T04:19:39.635Z,2.10
2019-01-26T04:22:09.250Z,2.10
2019-01-26T04:24:38.925Z,2.10
2019-01-26T04:27:08.604Z,2.20
2019-01-26T04:29:38.221Z,2.20
2019-01-26T04:32:07.905Z,2.30
2019-01-26T04:34:37.535Z,2.40
2019-01-26T04:37:07.464Z,2.40
2019-01-26T04:39:37.383Z,2.50
2019-01-26T04:42:07.353Z,2.60
2019-01-26T04:44:37.061Z,2.60
2019-01-26T04:47:06.681Z,2.70
2019-01-26T04:49:36.299Z,2.70
2019-01-26T04:52:06.657Z,2.80
2019-01-26T04:54:36.275Z,2.80
2019-01-26T04:57:05.978Z,2.90
2019-01-26T04:59:35.596Z,2.90
2019-01-26T05:02:05.464Z,2.90
2019-01-26T05:04:36.141Z,3.00
2019-01-26T05:07:05.941Z,3.00
2019-01-26T05:09:35.569Z,3.00
2019-01-26T05:12:05.272Z,3.10
2019-01-26T05:14:35.386Z,3.10
2019-01-26T05:17:05.114Z,3.10
2019-01-26T05:19:35.009Z,3.20
2019-01-26T05:22:05.080Z,3.20
2019-01-26T05:24:34.789Z,3.20
2019-01-26T05:27:04.712Z,3.20
2019-01-26T05:29:34.324Z,3.20
2019-01-26T05:32:04.493Z,3.20
2019-01-26T05:34:34.161Z,3.30
2019-01-26T05:37:03.789Z,3.30
2019-01-26T05:39:33.505Z,3.30
2019-01-26T05:42:03.131Z,3.30
2019-01-26T05:44:32.765Z,3.30
2019-01-26T05:47:02.406Z,3.30
2019-01-26T05:49:33.001Z,3.40
2019-01-26T05:52:02.701Z,3.40
2019-01-26T05:54:32.325Z,3.40
2019-01-26T05:57:02.199Z,3.40
2019-01-26T05:59:31.793Z,3.40
2019-01-26T06:02:01.491Z,3.40
2019-01-26T06:04:31.121Z,3.40
2019-01-26T06:07:00.804Z,3.40
2019-01-26T06:09:30.430Z,3.40
2019-01-26T06:12:00.042Z,3.50
2019-01-26T06:14:29.901Z,3.40
2019-01-26T06:16:59.520Z,3.40
2019-01-26T06:19:29.150Z,3.40
2019-01-26T06:21:58.813Z,3.50
2019-01-26T06:24:28.439Z,3.50
2019-01-26T06:26:58.094Z,3.50
2019-01-26T06:29:28.255Z,3.50
2019-01-26T06:31:57.864Z,3.50
2019-01-26T06:34:27.618Z,3.50
2019-01-26T06:36:57.233Z,3.50
2019-01-26T06:39:27.094Z,3.50
2019-01-26T06:41:56.955Z,3.50
2019-01-26T06:44:26.615Z,3.50
2019-01-26T06:46:56.475Z,3.50
2019-01-26T06:49:26.391Z,3.50
2019-01-26T06:51:56.169Z,3.50
2019-01-26T06:54:25.916Z,3.50
2019-01-26T06:56:55.848Z,3.50
2019-01-26T06:59:26.010Z,3.60
2019-01-26T07:01:55.874Z,3.50
2019-01-26T07:04:47.402Z,3.50
2019-01-26T07:07:18.866Z,3.60
2019-01-26T07:09:48.503Z,3.50
2019-01-26T07:12:18.166Z,3.60
2019-01-26T07:14:47.793Z,3.60
2019-01-26T07:17:17.408Z,3.60
2019-01-26T07:19:47.283Z,3.60
2019-01-26T07:22:16.908Z,3.70
2019-01-26T07:24:46.592Z,3.70
2019-01-26T07:27:16.327Z,3.70
2019-01-26T07:29:46.050Z,3.70
2019-01-26T07:32:15.673Z,3.70
2019-01-26T07:34:45.401Z,3.60
2019-01-26T07:37:15.076Z,3.60
2019-01-26T07:39:44.700Z,3.60
2019-01-26T07:42:14.405Z,3.60
2019-01-26T07:44:44.385Z,3.60
2019-01-26T07:47:14.005Z,3.60
2019-01-26T07:49:43.640Z,3.60
2019-01-26T07:52:13.559Z,3.60
2019-01-26T07:54:43.165Z,3.60
2019-01-26T07:57:13.045Z,3.60
2019-01-26T07:59:42.959Z,3.70
2019-01-26T08:02:12.912Z,3.90
2019-01-26T08:04:42.548Z,3.90
2019-01-26T08:07:12.212Z,3.80
2019-01-26T08:09:41.833Z,3.80
2019-01-26T08:12:11.452Z,3.80
2019-01-26T08:14:41.070Z,3.70
2019-01-26T08:17:10.769Z,3.80
2019-01-26T08:19:40.409Z,3.80
2019-01-26T08:22:10.037Z,3.80
2019-01-26T08:24:39.652Z,3.80
2019-01-26T08:27:09.272Z,3.90
2019-01-26T08:29:38.885Z,3.90
2019-01-26T08:32:08.504Z,3.90
2019-01-26T08:34:38.175Z,3.90
2019-01-26T08:37:07.873Z,3.90
2019-01-26T08:39:37.485Z,3.90
2019-01-26T08:42:07.464Z,4.00
2019-01-26T08:44:37.084Z,4.00
2019-01-26T08:47:06.791Z,4.00
2019-01-26T08:49:36.570Z,4.00
2019-01-26T08:52:06.916Z,3.90
2019-01-26T08:54:36.528Z,4.00
2019-01-26T08:57:06.680Z,4.00
2019-01-26T08:59:36.292Z,4.00
2019-01-26T09:02:25.557Z,4.00
2019-01-26T09:04:55.997Z,4.00
2019-01-26T09:07:25.627Z,4.00
2019-01-26T09:09:55.469Z,4.00
2019-01-26T09:12:25.205Z,3.90
2019-01-26T09:14:54.816Z,3.90
2019-01-26T09:17:24.460Z,4.00
2019-01-26T09:19:54.357Z,4.00
2019-01-26T09:22:23.971Z,4.00
2019-01-26T09:24:53.666Z,4.10
2019-01-26T09:27:23.364Z,4.00
2019-01-26T09:29:53.172Z,4.10
2019-01-26T09:32:22.864Z,4.10
2019-01-26T09:34:52.724Z,4.10
2019-01-26T09:37:22.747Z,4.10
2019-01-26T09:39:53.336Z,4.10
2019-01-26T09:42:23.009Z,4.10
2019-01-26T09:44:52.633Z,4.10
2019-01-26T09:47:22.508Z,4.10
2019-01-26T09:49:52.124Z,4.10
2019-01-26T09:52:21.825Z,4.10
2019-01-26T09:54:51.629Z,4.20
2019-01-26T09:57:21.245Z,4.20
2019-01-26T09:59:50.870Z,4.10
2019-01-26T10:02:20.472Z,4.20
2019-01-26T10:04:50.101Z,4.20
2019-01-26T10:07:19.717Z,4.20
2019-01-26T10:09:49.336Z,4.20
2019-01-26T10:12:19.699Z,4.10
2019-01-26T10:14:49.342Z,4.20
2019-01-26T10:17:19.253Z,4.20
2019-01-26T10:19:49.232Z,4.20
2019-01-26T10:22:18.841Z,4.20
2019-01-26T10:24:48.460Z,4.30
2019-01-26T10:27:18.194Z,4.30
2019-01-26T10:29:47.808Z,4.30
2019-01-26T10:32:17.812Z,4.30
2019-01-26T10:34:47.683Z,4.40
2019-01-26T10:37:21.852Z,4.40
2019-01-26T10:39:51.554Z,4.40
2019-01-26T10:42:29.404Z,4.40
2019-01-26T10:44:59.364Z,4.40
2019-01-26T10:47:29.092Z,4.50
2019-01-26T10:49:58.708Z,4.40
2019-01-26T10:52:28.321Z,4.40
2019-01-26T10:54:57.941Z,4.40
2019-01-26T10:57:27.951Z,4.50
2019-01-26T10:59:57.693Z,4.70
2019-01-26T11:02:27.392Z,4.70
2019-01-26T11:04:57.393Z,4.80
2019-01-26T11:07:27.004Z,4.80
2019-01-26T11:09:56.919Z,4.80
2019-01-26T11:12:26.584Z,4.70
2019-01-26T11:14:56.204Z,4.70
2019-01-26T11:17:25.829Z,4.70
2019-01-26T11:19:55.440Z,4.80
2019-01-26T11:22:25.044Z,4.70
2019-01-26T11:24:54.746Z,4.80
2019-01-26T11:27:24.374Z,4.70
2019-01-26T11:29:54.075Z,4.80
2019-01-26T11:32:23.685Z,4.70
2019-01-26T11:34:53.312Z,4.70
2019-01-26T11:37:22.928Z,4.60
2019-01-26T11:39:58.777Z,4.50
2019-01-26T11:42:28.753Z,4.60
2019-01-26T11:45:20.677Z,4.70
2019-01-26T11:47:50.351Z,4.60
2019-01-26T11:50:26.557Z,4.70
2019-01-26T11:52:56.437Z,4.60
2019-01-26T11:55:34.412Z,4.70
2019-01-26T11:58:04.215Z,4.70
2019-01-26T12:00:59.716Z,4.70
2019-01-26T12:03:51.657Z,4.70
2019-01-26T12:06:27.860Z,4.70
2019-01-26T12:08:57.566Z,4.70
2019-01-26T12:11:27.390Z,4.70
2019-01-26T12:13:57.169Z,4.70
2019-01-26T12:16:27.324Z,4.60
2019-01-26T12:18:57.042Z,4.70
2019-01-26T12:21:26.809Z,4.70
2019-01-26T12:23:56.837Z,4.70
2019-01-26T12:26:26.814Z,4.80
2019-01-26T12:28:56.465Z,4.90
2019-01-26T12:31:26.302Z,4.90
2019-01-26T12:33:55.901Z,4.90
2019-01-26T12:36:25.668Z,4.90
2019-01-26T12:38:55.309Z,4.90
2019-01-26T12:41:24.927Z,4.90
2019-01-26T12:43:54.549Z,4.90
2019-01-26T12:46:24.177Z,4.90
2019-01-26T12:48:53.972Z,5.00
2019-01-26T12:51:23.589Z,4.90
2019-01-26T12:53:53.208Z,5.00
2019-01-26T12:56:22.896Z,5.00
2019-01-26T12:58:52.606Z,5.00
2019-01-26T13:01:22.297Z,5.00
2019-01-26T13:03:52.368Z,5.10
2019-01-26T13:06:22.031Z,5.10
2019-01-26T13:08:51.670Z,5.40
2019-01-26T13:11:23.724Z,5.60
2019-01-26T13:13:53.423Z,5.70
2019-01-26T13:16:23.100Z,5.70
2019-01-26T13:18:52.793Z,5.70
2019-01-26T13:21:22.773Z,5.70
2019-01-26T13:23:52.416Z,5.70
2019-01-26T13:26:22.106Z,5.70
2019-01-26T13:28:51.830Z,5.70
2019-01-26T13:31:21.963Z,5.70
2019-01-26T13:33:51.917Z,5.70
2019-01-26T13:36:21.843Z,5.70
2019-01-26T13:38:51.464Z,5.70
2019-01-26T13:41:21.385Z,5.70
2019-01-26T13:43:51.282Z,5.70
2019-01-26T13:46:20.892Z,5.70
2019-01-26T13:48:50.503Z,5.70
2019-01-26T13:51:20.497Z,5.70
2019-01-26T13:53:50.244Z,5.70
2019-01-26T13:56:20.352Z,5.70
2019-01-26T13:58:50.148Z,5.70
2019-01-26T14:01:20.972Z,5.70
2019-01-26T14:03:51.201Z,5.70
2019-01-26T14:06:20.941Z,5.70
2019-01-26T14:08:50.736Z,5.70
2019-01-26T14:11:20.559Z,5.70
2019-01-26T14:13:50.209Z,5.70
2019-01-26T14:16:20.001Z,5.70
2019-01-26T14:18:49.706Z,5.60
2019-01-26T14:21:19.499Z,5.60
2019-01-26T14:23:49.128Z,5.60
2019-01-26T14:26:37.960Z,5.60
2019-01-26T14:29:07.592Z,5.60
2019-01-26T14:31:37.708Z,5.50
2019-01-26T14:34:07.562Z,5.50
2019-01-26T14:36:37.385Z,5.70
2019-01-26T14:39:09.196Z,5.80
2019-01-26T14:41:38.842Z,5.70
2019-01-26T14:44:08.760Z,5.60
2019-01-26T14:46:38.701Z,5.60
2019-01-26T14:49:08.479Z,5.60
2019-01-26T14:51:38.089Z,5.50
2019-01-26T14:54:08.351Z,5.50
2019-01-26T14:56:38.042Z,5.40
2019-01-26T14:59:07.845Z,5.30
2019-01-26T15:01:37.658Z,5.30
2019-01-26T15:04:07.845Z,5.30
2019-01-26T15:06:37.904Z,5.30
2019-01-26T15:09:09.761Z,5.30
2019-01-26T15:11:39.738Z,5.30
2019-01-26T15:14:09.361Z,5.20
2019-01-26T15:16:39.329Z,5.20
2019-01-26T15:19:09.382Z,5.20
2019-01-26T15:21:39.164Z,5.20
2019-01-26T15:24:09.064Z,5.10
2019-01-26T15:26:39.481Z,5.10
2019-01-26T15:29:09.255Z,5.10
2019-01-26T15:31:39.375Z,5.10
2019-01-26T15:34:09.460Z,5.10
2019-01-26T15:36:39.114Z,5.10
2019-01-26T15:39:10.017Z,5.10
2019-01-26T15:41:39.828Z,5.10
2019-01-26T15:44:09.566Z,5.10
2019-01-26T15:46:39.497Z,5.10
2019-01-26T15:49:09.344Z,5.10
2019-01-26T15:51:39.328Z,5.10
2019-01-26T15:54:09.205Z,5.10
2019-01-26T15:56:39.234Z,5.10
2019-01-26T15:59:09.392Z,5.10
2019-01-26T16:01:39.388Z,5.10
2019-01-26T16:04:09.018Z,5.10
2019-01-26T16:06:38.748Z,5.10
2019-01-26T16:09:09.397Z,5.10
2019-01-26T16:11:39.350Z,5.00
2019-01-26T16:14:08.969Z,5.00
2019-01-26T16:16:38.654Z,5.00
2019-01-26T16:19:08.260Z,5.00
2019-01-26T16:21:37.880Z,5.00
2019-01-26T16:24:07.609Z,5.00
2019-01-26T16:26:37.231Z,5.00
2019-01-26T16:29:06.849Z,5.00
2019-01-26T16:31:36.578Z,5.00
2019-01-26T16:34:06.694Z,5.00
2019-01-26T16:36:36.777Z,5.00
2019-01-26T16:39:09.669Z,5.00
2019-01-26T16:41:39.381Z,5.00
2019-01-26T16:44:09.041Z,5.00
2019-01-26T16:46:38.778Z,4.90
2019-01-26T16:49:08.388Z,4.90
2019-01-26T16:51:38.630Z,4.90
2019-01-26T16:54:08.544Z,4.90
2019-01-26T16:56:38.166Z,4.90
2019-01-26T16:59:07.794Z,4.90
2019-01-26T17:01:37.401Z,4.90
2019-01-26T17:04:07.413Z,4.90
2019-01-26T17:06:37.309Z,4.90
2019-01-26T17:09:09.427Z,4.90
2019-01-26T17:11:39.472Z,4.90
2019-01-26T17:14:09.125Z,4.90
2019-01-26T17:16:38.744Z,4.90
2019-01-26T17:19:08.424Z,4.90
2019-01-26T17:21:38.049Z,4.90
2019-01-26T17:24:07.729Z,4.90
2019-01-26T17:26:37.424Z,5.00
2019-01-26T17:29:07.024Z,5.20
2019-01-26T17:31:37.232Z,5.20
2019-01-26T17:34:06.997Z,5.20
2019-01-26T17:36:36.937Z,5.10
2019-01-26T17:39:08.711Z,5.00
2019-01-26T17:41:38.405Z,5.00
2019-01-26T17:44:08.597Z,4.90
2019-01-26T17:46:38.217Z,5.00
2019-01-26T17:49:08.812Z,4.90
2019-01-26T17:51:38.868Z,4.90
2019-01-26T17:54:08.793Z,4.90
2019-01-26T17:56:38.480Z,4.90
2019-01-26T17:59:08.170Z,4.90
2019-01-26T18:01:37.870Z,4.90
2019-01-26T18:04:07.798Z,5.00
2019-01-26T18:06:37.764Z,4.90
2019-01-26T18:09:08.529Z,4.90
2019-01-26T18:11:38.440Z,4.90
2019-01-26T18:14:08.156Z,4.90
2019-01-26T18:16:37.776Z,4.90
2019-01-26T18:19:08.334Z,4.90
2019-01-26T18:21:38.353Z,4.90
2019-01-26T18:24:08.304Z,4.90
2019-01-26T18:26:37.988Z,5.00
2019-01-26T18:29:07.733Z,4.90
2019-01-26T18:31:37.383Z,4.90
2019-01-26T18:34:07.156Z,4.90
2019-01-26T18:36:36.868Z,5.00
2019-01-26T18:39:09.533Z,4.90
2019-01-26T18:41:40.500Z,4.90
2019-01-26T18:44:10.124Z,5.00
2019-01-26T18:46:39.731Z,5.00
2019-01-26T18:49:09.393Z,5.00
2019-01-26T18:51:39.129Z,5.00
2019-01-26T18:54:08.833Z,5.00
2019-01-26T18:56:38.454Z,5.00
2019-01-26T18:59:08.087Z,5.00
2019-01-26T19:01:37.778Z,5.10
2019-01-26T19:04:27.072Z,5.10
2019-01-26T19:06:57.036Z,5.10
2019-01-26T19:09:27.141Z,5.10
2019-01-26T19:11:56.806Z,5.20
2019-01-26T19:14:26.455Z,5.20
2019-01-26T19:16:56.080Z,5.20
2019-01-26T19:19:26.032Z,5.30
2019-01-26T19:21:55.737Z,5.30
2019-01-26T19:24:25.360Z,5.40
2019-01-26T19:26:54.965Z,5.40
2019-01-26T19:29:24.661Z,5.40
2019-01-26T19:31:54.277Z,5.40
2019-01-26T19:34:23.979Z,5.40
2019-01-26T19:36:53.593Z,5.40
2019-01-26T19:39:23.284Z,5.50
2019-01-26T19:41:53.008Z,5.50
2019-01-26T19:44:22.645Z,5.50
2019-01-26T19:46:52.257Z,5.50
2019-01-26T19:49:22.064Z,5.50
2019-01-26T19:51:51.668Z,5.60
2019-01-26T19:54:21.289Z,5.60
2019-01-26T19:56:50.916Z,5.60
2019-01-26T19:59:20.540Z,5.60
2019-01-26T20:01:50.173Z,5.60
2019-01-26T20:04:20.124Z,5.60
2019-01-26T20:06:50.383Z,5.60
2019-01-26T20:09:20.069Z,5.70
2019-01-26T20:11:49.824Z,5.70
2019-01-26T20:14:19.488Z,5.70
2019-01-26T20:16:49.512Z,5.70
2019-01-26T20:19:19.289Z,5.70
2019-01-26T20:21:48.990Z,5.70
2019-01-26T20:24:18.661Z,5.70
2019-01-26T20:26:48.348Z,5.70
2019-01-26T20:29:17.964Z,5.80
2019-01-26T20:31:47.841Z,5.80
2019-01-26T20:34:17.660Z,5.80
2019-01-26T20:36:47.294Z,5.80
2019-01-26T20:39:16.910Z,5.80
2019-01-26T20:41:46.560Z,5.80
2019-01-26T20:44:16.251Z,5.90
2019-01-26T20:46:46.192Z,5.90
2019-01-26T20:49:15.825Z,5.90
2019-01-26T20:51:45.453Z,5.90
2019-01-26T20:54:15.204Z,5.90
2019-01-26T20:56:44.832Z,5.90
2019-01-26T20:59:14.613Z,5.90
2019-01-26T21:01:44.285Z,5.90
2019-01-26T21:04:14.035Z,5.90
2019-01-26T21:06:43.668Z,5.90
2019-01-26T21:09:13.359Z,6.00
2019-01-26T21:11:43.363Z,5.90
2019-01-26T21:14:12.983Z,5.90
2019-01-26T21:16:42.652Z,5.90
2019-01-26T21:19:12.268Z,5.90
2019-01-26T21:21:42.005Z,5.90
2019-01-26T21:24:11.862Z,5.90
2019-01-26T21:26:41.532Z,5.90
2019-01-26T21:29:11.276Z,5.80
2019-01-26T21:31:41.254Z,5.80
2019-01-26T21:34:11.297Z,5.80
2019-01-26T21:36:41.024Z,5.80
2019-01-26T21:39:10.704Z,5.70
2019-01-26T21:41:40.611Z,5.70
2019-01-26T21:44:10.239Z,5.70
2019-01-26T21:46:39.903Z,5.70
2019-01-26T21:49:09.608Z,5.80
2019-01-26T21:51:39.552Z,5.80
2019-01-26T21:54:09.172Z,5.70
2019-01-26T21:56:38.805Z,5.80
2019-01-26T21:59:08.712Z,5.80
2019-01-26T22:01:38.403Z,5.80
2019-01-26T22:04:08.124Z,5.80
2019-01-26T22:06:37.749Z,5.80
2019-01-26T22:09:09.181Z,5.70
2019-01-26T22:11:39.021Z,5.70
2019-01-26T22:14:08.806Z,5.70
2019-01-26T22:16:38.408Z,5.80
2019-01-26T22:19:08.033Z,5.80
2019-01-26T22:21:37.717Z,5.70
2019-01-26T22:24:07.597Z,5.70
2019-01-26T22:26:37.516Z,5.70
2019-01-26T22:29:07.208Z,5.70
2019-01-26T22:31:36.815Z,5.70
2019-01-26T22:34:06.643Z,5.70
2019-01-26T22:36:36.513Z,5.70
2019-01-26T22:39:08.480Z,5.60
2019-01-26T22:41:38.709Z,5.70
2019-01-26T22:44:08.690Z,5.70
2019-01-26T22:46:38.448Z,5.70
2019-01-26T22:49:08.076Z,5.70
2019-01-26T22:51:37.932Z,5.70
2019-01-26T22:54:07.648Z,5.60
2019-01-26T22:56:37.497Z,5.60
2019-01-26T22:59:07.136Z,5.60
2019-01-26T23:01:39.677Z,5.60
2019-01-26T23:04:33.429Z,5.60
2019-01-26T23:07:33.555Z,5.60
2019-01-26T23:10:46.746Z,5.50
2019-01-26T23:13:53.293Z,5.50
2019-01-26T23:16:46.185Z,5.50
2019-01-26T23:19:26.589Z,5.50
2019-01-26T23:22:29.148Z,5.50
2019-01-26T23:25:35.970Z,5.50
2019-01-26T23:28:18.740Z,5.50
2019-01-26T23:31:14.151Z,5.50
2019-01-26T23:33:44.206Z,5.40
2019-01-26T23:36:14.455Z,5.40
2019-01-26T23:38:44.161Z,5.40
2019-01-26T23:41:13.840Z,5.40
2019-01-26T23:43:43.553Z,5.50
2019-01-26T23:46:13.251Z,5.50
2019-01-26T23:48:42.941Z,5.50
2019-01-26T23:51:12.909Z,5.50
2019-01-26T23:53:42.692Z,5.50
2019-01-26T23:56:12.557Z,5.60
2019-01-26T23:58:42.349Z,5.60
